New Underwood, SD

10:17 AM MST on February 08, 2016 (GMT -0700)
The City of New Underwood | | Change Station
CLOSE
Current Station
Personal Weather Station
Location: New Underwood, SD
Elevation: 2854 ft
Nearby Weather Stations

Elev 2854 ft 44.09 °N, 102.83 °W | Updated 6 minutes ago

Mostly Cloudy
Mostly Cloudy
35.0 °F
Feels Like 25 °F
N
17.0
Wind Variable Wind from NNW
Gusts 28.0 mph

Today
High -- | Low -- °F
--% Chance of Precip.
Yesterday
High -- | Low -- °F
Precip. -- in
Pressure 30.41 in
Visibility 10.0 miles
Clouds Scattered Clouds 9000 ft
Windchill 25 °F
Dew Point 13 °F
Humidity 41%
Rainfall 0.00 in
Snow Depth Not available.
7:00 AM 5:10 PM
New Moon, 0% visible
METAR KRAP 081652Z 33023G32KT 10SM SCT090 03/M14 A3033 RMK AO2 PK WND 33034/1555 SLP296 T00281144
Pressure 30.41 in
Visibility 10.0 miles
Clouds Scattered Clouds 9000 ft
Windchill 25 °F
Dew Point 13 °F
Humidity 41%
Rainfall 0.00 in
Snow Depth Not available.
7:00 AM 5:10 PM
New Moon, 0% visible
METAR KRAP 081652Z 33023G32KT 10SM SCT090 03/M14 A3033 RMK AO2 PK WND 33034/1555 SLP296 T00281144

10-Day Weather Forecast

Almanac

Astronomy

Feb. 08, 2016 Rise Set
Actual Time
Civil Twilight
Nautical Twilight
Astronomical Twilight
Moon
Length of Visible Light
Length of Day
Tomorrow will be .
, % of the Moon is Illuminated

Today's Extremes

State Highs State Lows

Community

WunderPhotos

Upload Photos

1,891,471 photos uploaded!

WunderBlog® & News

Nearby

Air Quality

  Air Quality AQ Index Pollutant
Not available.

Snow Depth

Station Depth Elevation

Earthquake Activity

City Distance Mag. Time & Date
Minimum magnitude displayed is 2.5.

Coastal Water Temperatures

Place Temperature

Stations

Nearby Weather Stations

Station Location Temp. Windchill Dew Point Humidity Wind Precip. Elev Updated Type
                   

Watches & Warnings

There are currently no watches in effect.